Time;durP1;ratioP1;P1;durP2;ratioP2;P2;SDS_P1;SDS_P2;PMS_P1;PMS_P2;Temp;Humidity;BMP_temperature;BMP_pressure;BME280_temperature;BME280_humidity;BME280_pressure;Samples;Min_cycle;Max_cycle;Signal;HPM_P1;HPM_P2
2022/06/16 00:00:54;;;;;;;6.80;4.20;;;;;;;19.35;100.00;101766.81;2056905;28;20171;-64
2022/06/16 00:01:54;;;;;;;5.13;3.63;;;;;;;19.31;100.00;101766.19;2056815;28;20664;-64
2022/06/16 00:02:55;;;;;;;8.27;4.07;;;;;;;18.88;100.00;101703.75;2056946;28;20183;-64
2022/06/16 00:03:55;;;;;;;6.77;4.20;;;;;;;19.29;100.00;101774.28;2056858;28;20728;-64
2022/06/16 00:04:56;;;;;;;7.10;4.10;;;;;;;19.18;100.00;101762.69;2057081;28;20647;-64
2022/06/16 00:05:56;;;;;;;6.33;4.20;;;;;;;19.23;100.00;101773.34;2056776;28;20182;-65
2022/06/16 00:06:59;;;;;;;9.83;4.27;;;;;;;18.68;100.00;101698.53;2056833;28;20183;-64
2022/06/16 00:08:00;;;;;;;4.37;3.97;;;;;;;19.26;100.00;101775.22;2056768;28;20180;-64
2022/06/16 00:09:01;;;;;;;5.80;4.20;;;;;;;19.25;100.00;101776.44;2057347;28;20456;-64
2022/06/16 00:10:02;;;;;;;6.57;4.37;;;;;;;18.87;100.00;101711.38;2064797;28;20424;-64
2022/06/16 00:11:19;;;;;;;10.07;4.87;;;;;;;19.31;100.00;101779.44;2064873;28;20204;-64
2022/06/16 00:12:20;;;;;;;8.03;4.40;;;;;;;19.32;100.00;101775.38;2064857;28;20401;-64
2022/06/16 00:13:20;;;;;;;9.00;4.00;;;;;;;18.83;100.00;101710.75;2064871;28;20413;-64
2022/06/16 00:14:27;;;;;;;7.97;4.30;;;;;;;19.30;100.00;101769.47;2064748;28;20262;-64
2022/06/16 00:15:29;;;;;;;8.23;4.13;;;;;;;19.28;100.00;101764.28;2064840;28;20694;-64
2022/06/16 00:16:29;;;;;;;7.27;4.23;;;;;;;19.24;100.00;101765.69;2064623;28;20459;-64
2022/06/16 00:17:30;;;;;;;9.10;4.50;;;;;;;18.57;100.00;101672.91;2064904;28;20423;-64
2022/06/16 00:18:31;;;;;;;7.20;3.97;;;;;;;19.14;100.00;101758.47;2064805;28;20209;-64
2022/06/16 00:19:32;;;;;;;5.93;4.23;;;;;;;19.17;100.00;101761.13;2064981;28;20265;-64
2022/06/16 00:20:32;;;;;;;5.67;3.70;;;;;;;19.17;100.00;101760.31;2064878;28;20421;-64
2022/06/16 00:21:33;;;;;;;5.30;3.93;;;;;;;19.17;100.00;101763.94;2064781;28;20667;-64
2022/06/16 00:22:35;;;;;;;5.67;3.77;;;;;;;19.09;100.00;101762.66;2064711;28;20178;-64
2022/06/16 00:23:35;;;;;;;5.30;3.90;;;;;;;18.01;100.00;101618.97;2064912;28;20186;-64
2022/06/16 00:24:36;;;;;;;5.20;4.20;;;;;;;18.86;100.00;101759.59;2064862;28;20429;-64
2022/06/16 00:25:36;;;;;;;7.63;4.20;;;;;;;18.78;100.00;101752.72;2064759;28;20204;-64
2022/06/16 00:26:37;;;;;;;6.27;4.33;;;;;;;17.88;100.00;101633.09;2065704;28;20217;-64
2022/06/16 00:27:38;;;;;;;7.47;4.10;;;;;;;18.57;100.00;101764.78;2066240;28;20225;-64
2022/06/16 00:28:40;;;;;;;6.00;4.60;;;;;;;18.23;100.00;101705.91;2066218;28;20174;-64
2022/06/16 00:29:41;;;;;;;7.30;4.73;;;;;;;18.45;100.00;101741.16;2066339;28;20224;-64
2022/06/16 00:30:41;;;;;;;5.73;4.13;;;;;;;18.55;100.00;101765.22;2066217;28;20603;-64
2022/06/16 00:31:42;;;;;;;7.03;4.27;;;;;;;18.58;100.00;101764.28;2066319;28;20172;-64
2022/06/16 00:32:43;;;;;;;5.73;4.50;;;;;;;18.61;100.00;101760.59;2066323;28;20671;-64
2022/06/16 00:33:44;;;;;;;6.67;4.53;;;;;;;18.64;100.00;101770.91;2066154;28;20213;-64
2022/06/16 00:34:45;;;;;;;7.27;4.70;;;;;;;18.70;100.00;101768.25;2066222;28;20239;-64
2022/06/16 00:35:45;;;;;;;10.67;5.23;;;;;;;18.37;100.00;101725.06;2066273;28;20433;-64
2022/06/16 00:36:46;;;;;;;6.33;4.83;;;;;;;18.71;100.00;101776.22;2066187;28;20545;-64
2022/06/16 00:37:46;;;;;;;6.23;4.60;;;;;;;18.74;100.00;101780.16;2066242;28;20257;-64
2022/06/16 00:38:47;;;;;;;8.13;5.13;;;;;;;18.73;100.00;101770.16;2066204;28;20182;-64
2022/06/16 00:39:47;;;;;;;8.07;5.60;;;;;;;18.63;100.00;101765.75;2066131;28;20230;-64
2022/06/16 00:40:48;;;;;;;6.93;4.97;;;;;;;17.84;100.00;101645.69;2066199;28;20173;-64
2022/06/16 00:41:48;;;;;;;8.43;5.03;;;;;;;18.68;100.00;101773.56;2066277;28;20681;-64
2022/06/16 00:42:49;;;;;;;9.70;5.30;;;;;;;17.85;100.00;101641.63;2066540;28;20177;-64
2022/06/16 00:43:49;;;;;;;8.63;5.10;;;;;;;18.71;100.00;101778.25;2066300;28;20213;-64
2022/06/16 00:44:54;;;;;;;7.43;4.63;;;;;;;18.72;100.00;101777.78;2066218;28;20656;-64
2022/06/16 00:46:01;;;;;;;11.03;5.23;;;;;;;18.76;100.00;101774.84;2066106;28;20551;-64
2022/06/16 00:47:02;;;;;;;6.93;4.87;;;;;;;18.39;100.00;101716.94;2066190;28;20416;-64
2022/06/16 00:48:02;;;;;;;8.37;5.40;;;;;;;18.74;100.00;101791.38;2066176;28;20931;-64
2022/06/16 00:49:06;;;;;;;7.53;5.27;;;;;;;18.62;100.00;101761.38;2066147;28;20683;-64
2022/06/16 00:50:07;;;;;;;8.70;5.30;;;;;;;18.66;100.00;101771.22;2065989;28;20170;-64
2022/06/16 00:51:18;;;;;;;9.00;4.90;;;;;;;18.63;100.00;101768.56;2066140;28;20417;-64
2022/06/16 00:52:23;;;;;;;7.60;4.57;;;;;;;18.23;100.00;101720.75;2066222;28;20698;-64
2022/06/16 00:53:26;;;;;;;9.90;5.17;;;;;;;18.60;100.00;101772.25;2066042;28;20520;-64
2022/06/16 00:54:34;;;;;;;8.27;4.80;;;;;;;18.59;100.00;101767.91;2065995;28;20422;-64
2022/06/16 00:55:34;;;;;;;9.03;5.20;;;;;;;18.57;100.00;101771.16;2065940;28;20420;-64
2022/06/16 00:56:35;;;;;;;6.47;5.40;;;;;;;18.58;100.00;101775.53;2065996;28;20425;-64
2022/06/16 00:57:43;;;;;;;7.43;5.23;;;;;;;18.55;100.00;101768.03;2066050;28;20261;-64
2022/06/16 00:58:48;;;;;;;7.30;5.00;;;;;;;18.16;100.00;101720.22;2066004;28;20169;-64
2022/06/16 00:59:50;;;;;;;6.73;5.03;;;;;;;18.45;100.00;101780.47;2066215;28;20859;-64
2022/06/16 01:00:52;;;;;;;10.67;5.23;;;;;;;18.41;100.00;101777.00;2065408;28;20432;-64
2022/06/16 01:01:53;;;;;;;9.83;5.27;;;;;;;18.07;100.00;101734.94;2065603;28;20823;-64
2022/06/16 01:02:53;;;;;;;9.67;5.53;;;;;;;18.39;100.00;101778.69;2065932;28;20421;-64
2022/06/16 01:05:14;;;;;;;6.87;4.63;;;;;;;18.37;100.00;101787.56;2066084;28;20161;-64
2022/06/16 01:06:22;;;;;;;10.00;5.30;;;;;;;18.32;100.00;101781.75;2065726;28;20932;-64
2022/06/16 01:07:44;;;;;;;6.00;5.20;;;;;;;18.22;100.00;101777.31;2066098;28;20173;-64
2022/06/16 01:08:47;;;;;;;8.03;5.10;;;;;;;18.16;100.00;101776.34;2066163;28;20442;-64
2022/06/16 01:09:47;;;;;;;7.93;5.13;;;;;;;18.17;100.00;101777.91;2066046;28;20516;-64
2022/06/16 01:10:51;;;;;;;13.43;6.13;;;;;;;18.19;100.00;101784.63;2065943;28;20467;-64
2022/06/16 01:13:44;;;;;;;10.83;5.60;;;;;;;18.18;100.00;101764.19;2065889;28;20395;-64
2022/06/16 01:15:05;;;;;;;12.17;5.83;;;;;;;18.14;100.00;101779.59;2065958;28;20483;-64
2022/06/16 01:16:24;;;;;;;10.17;5.87;;;;;;;18.09;100.00;101778.13;2065823;28;20437;-64
2022/06/16 01:17:47;;;;;;;14.23;6.67;;;;;;;18.04;100.00;101778.72;2065996;28;20939;-64
2022/06/16 01:18:59;;;;;;;6.83;5.60;;;;;;;18.08;100.00;101783.44;2065796;28;20899;-64
2022/06/16 01:20:02;;;;;;;8.03;5.67;;;;;;;18.08;100.00;101780.63;2065690;28;20423;-64
2022/06/16 01:21:28;;;;;;;9.37;5.70;;;;;;;18.05;100.00;101779.53;2065865;28;20453;-64
2022/06/16 01:22:47;;;;;;;8.63;5.80;;;;;;;18.04;100.00;101775.16;2065973;28;20399;-64
2022/06/16 01:23:57;;;;;;;7.33;5.70;;;;;;;18.02;100.00;101774.81;2065955;28;20486;-64
2022/06/16 01:25:21;;;;;;;9.53;5.60;;;;;;;18.01;100.00;101778.84;2065955;28;20405;-64
2022/06/16 01:26:59;;;;;;;9.13;5.80;;;;;;;18.01;100.00;101784.47;2065564;28;20835;-64
2022/06/16 01:28:15;;;;;;;10.57;6.13;;;;;;;17.85;100.00;101776.25;2065925;28;20793;-64
2022/06/16 01:29:41;;;;;;;9.17;5.60;;;;;;;17.86;100.00;101783.41;2065900;28;20443;-64
2022/06/16 01:31:17;;;;;;;6.73;5.43;;;;;;;17.90;100.00;101783.31;2065779;28;20459;-64
2022/06/16 01:32:44;;;;;;;6.97;5.33;;;;;;;17.94;100.00;101777.09;2042037;28;21009;-64
2022/06/16 01:33:54;;;;;;;6.13;5.40;;;;;;;17.82;100.00;101771.56;2064759;28;20437;-64
2022/06/16 01:34:58;;;;;;;11.57;5.77;;;;;;;17.84;100.00;101780.28;2057194;28;20416;-64
2022/06/16 01:36:13;;;;;;;11.67;5.53;;;;;;;17.83;100.00;101775.91;2057157;28;20455;-64
2022/06/16 01:37:21;;;;;;;10.43;5.20;;;;;;;17.80;100.00;101779.63;2056680;28;20425;-64
2022/06/16 01:38:25;;;;;;;7.27;5.23;;;;;;;17.85;100.00;101781.09;2057263;28;20971;-64
2022/06/16 01:39:39;;;;;;;8.87;5.33;;;;;;;17.83;100.00;101771.06;2057742;28;20504;-64
2022/06/16 01:40:45;;;;;;;7.63;5.43;;;;;;;17.83;100.00;101780.72;2057641;28;20418;-64
2022/06/16 01:41:54;;;;;;;6.00;5.00;;;;;;;17.80;100.00;101774.00;2057813;28;20407;-64
2022/06/16 01:43:15;;;;;;;9.50;5.07;;;;;;;17.83;100.00;101769.50;2057750;28;20924;-64
2022/06/16 01:44:23;;;;;;;5.50;4.90;;;;;;;17.73;100.00;101775.03;2053717;28;20947;-64
2022/06/16 01:45:37;;;;;;;8.40;5.50;;;;;;;17.30;100.00;101702.06;2057059;28;20976;-64
2022/06/16 01:46:42;;;;;;;8.00;4.80;;;;;;;17.67;100.00;101751.63;2057229;28;20431;-64
2022/06/16 01:47:47;;;;;;;6.57;4.83;;;;;;;17.79;100.00;101758.44;2057075;28;20530;-64
2022/06/16 01:48:53;;;;;;;7.67;5.00;;;;;;;17.91;100.00;101773.66;2057228;28;21014;-64
2022/06/16 01:50:01;;;;;;;8.13;5.60;;;;;;;17.93;100.00;101769.91;2057645;28;20429;-64
2022/06/16 01:51:04;;;;;;;7.00;5.10;;;;;;;17.97;100.00;101764.19;2057727;28;20487;-64
2022/06/16 01:52:12;;;;;;;7.37;4.60;;;;;;;17.99;100.00;101759.69;2057587;28;20410;-64
2022/06/16 01:53:18;;;;;;;10.63;5.30;;;;;;;17.86;100.00;101757.41;2057567;28;20403;-64
2022/06/16 01:54:33;;;;;;;7.97;4.80;;;;;;;18.01;100.00;101759.22;2057724;28;20407;-64
2022/06/16 01:55:38;;;;;;;5.40;4.90;;;;;;;17.00;100.00;101589.91;2057604;28;20414;-64
2022/06/16 01:57:08;;;;;;;5.17;4.50;;;;;;;18.09;100.00;101760.53;2056857;28;20953;-64
2022/06/16 01:58:17;;;;;;;8.00;5.33;;;;;;;18.07;100.00;101756.63;2057254;28;20473;-64
2022/06/16 01:59:26;;;;;;;9.97;4.70;;;;;;;18.08;100.00;101758.97;2057596;28;20414;-64
2022/06/16 02:00:27;;;;;;;10.03;4.40;;;;;;;18.08;100.00;101755.38;2057604;28;20485;-64
2022/06/16 02:01:33;;;;;;;7.73;4.40;;;;;;;18.07;100.00;101763.00;2057585;28;20450;-64
2022/06/16 02:02:37;;;;;;;8.10;4.33;;;;;;;18.08;100.00;101756.94;2057507;28;20457;-64
2022/06/16 02:03:48;;;;;;;7.00;4.43;;;;;;;18.11;100.00;101762.91;2057671;28;20920;-64
2022/06/16 02:05:02;;;;;;;7.53;4.20;;;;;;;18.18;100.00;101757.81;2057524;28;20494;-64
2022/06/16 02:06:16;;;;;;;8.07;5.00;;;;;;;17.92;100.00;101727.53;2057217;28;20433;-64
2022/06/16 02:07:26;;;;;;;5.97;4.77;;;;;;;18.09;100.00;101774.56;2057576;28;20406;-64
2022/06/16 02:08:34;;;;;;;10.93;4.77;;;;;;;18.00;100.00;101763.28;2056754;28;20437;-64
2022/06/16 02:09:41;;;;;;;8.23;5.10;;;;;;;17.92;100.00;101758.38;2061918;28;20633;-64
2022/06/16 02:10:49;;;;;;;5.27;4.00;;;;;;;16.98;100.00;101636.41;2065436;28;20485;-64
2022/06/16 02:11:50;;;;;;;8.70;4.60;;;;;;;17.02;100.00;101649.03;2065536;28;20491;-64
2022/06/16 02:12:55;;;;;;;6.17;4.10;;;;;;;17.73;100.00;101773.47;2065470;28;20421;-64
2022/06/16 02:14:10;;;;;;;6.60;4.30;;;;;;;17.70;100.00;101772.38;2065244;28;20772;-64
2022/06/16 02:15:43;;;;;;;7.83;4.93;;;;;;;17.67;100.00;101770.50;2065441;28;20401;-64
2022/06/16 02:16:45;;;;;;;7.63;4.43;;;;;;;17.68;100.00;101769.25;2053588;28;20469;-64
2022/06/16 02:17:45;;;;;;;9.20;4.90;;;;;;;17.58;100.00;101759.94;2057454;28;20943;-64
2022/06/16 02:18:46;;;;;;;5.50;4.90;;;;;;;16.84;100.00;101658.03;2057241;28;20845;-64
2022/06/16 02:19:47;;;;;;;6.07;4.83;;;;;;;17.53;100.00;101776.56;2057370;28;20181;-64
2022/06/16 02:20:53;;;;;;;8.50;4.93;;;;;;;17.52;100.00;101768.63;2057302;28;20425;-64
2022/06/16 02:21:54;;;;;;;6.93;4.17;;;;;;;17.57;100.00;101762.44;2064710;28;20192;-64
2022/06/16 02:22:57;;;;;;;6.73;4.80;;;;;;;17.37;100.00;101738.22;2065310;28;20413;-64
2022/06/16 02:23:58;;;;;;;7.43;4.80;;;;;;;17.58;100.00;101773.19;2065232;28;20792;-64
2022/06/16 02:24:59;;;;;;;6.70;4.77;;;;;;;17.63;100.00;101772.63;2065513;28;20459;-64
2022/06/16 02:26:00;;;;;;;7.40;4.80;;;;;;;17.63;100.00;101769.81;2065286;28;20460;-64
2022/06/16 02:27:01;;;;;;;7.20;4.70;;;;;;;17.63;100.00;101770.59;2065286;28;20303;-64
2022/06/16 02:28:02;;;;;;;7.43;4.77;;;;;;;17.67;100.00;101768.44;2064696;28;20499;-64
2022/06/16 02:29:26;;;;;;;5.43;4.70;;;;;;;17.49;100.00;101738.69;2064685;28;20177;-64
2022/06/16 02:30:36;;;;;;;8.03;5.20;;;;;;;17.70;100.00;101766.00;2065286;28;20210;-64
2022/06/16 02:31:44;;;;;;;8.00;4.60;;;;;;;17.69;100.00;101762.41;2065094;28;20416;-64
2022/06/16 02:32:50;;;;;;;7.03;4.97;;;;;;;17.67;100.00;101770.50;2065388;28;20849;-64
2022/06/16 02:34:19;;;;;;;8.90;4.63;;;;;;;17.62;100.00;101773.88;2065094;28;20505;-64
2022/06/16 02:35:31;;;;;;;10.97;4.80;;;;;;;17.57;100.00;101768.84;2056048;28;20479;-64
2022/06/16 02:36:58;;;;;;;8.97;4.63;;;;;;;16.98;100.00;101670.00;2056622;28;20983;-64
2022/06/16 02:38:07;;;;;;;7.77;4.80;;;;;;;17.61;100.00;101777.13;2065347;28;20428;-64
2022/06/16 02:39:17;;;;;;;7.50;4.60;;;;;;;17.51;100.00;101753.03;2065265;28;20467;-64
2022/06/16 02:40:38;;;;;;;10.93;5.03;;;;;;;17.63;100.00;101772.63;2065347;28;20414;-64
2022/06/16 02:41:52;;;;;;;6.97;5.40;;;;;;;17.60;100.00;101786.75;2065119;28;20575;-64
2022/06/16 02:43:04;;;;;;;7.27;5.17;;;;;;;17.58;100.00;101772.41;2065303;28;20503;-64
2022/06/16 02:44:46;;;;;;;6.87;4.30;;;;;;;17.47;100.00;101763.56;2065305;28;20507;-64
2022/06/16 02:46:02;;;;;;;7.33;4.40;;;;;;;16.76;100.00;101661.50;2056144;28;20441;-64
2022/06/16 02:47:17;;;;;;;7.00;4.77;;;;;;;17.52;100.00;101786.22;2056236;28;20402;-64
2022/06/16 02:48:32;;;;;;;7.63;4.90;;;;;;;16.73;100.00;101644.84;2061477;28;20863;-64
2022/06/16 02:49:53;;;;;;;5.27;4.40;;;;;;;17.58;100.00;101783.63;2064851;28;20516;-64
2022/06/16 02:51:05;;;;;;;6.93;4.77;;;;;;;17.52;100.00;101782.63;2065282;28;20456;-64
2022/06/16 02:52:19;;;;;;;7.90;4.50;;;;;;;17.46;100.00;101788.03;2065175;28;20437;-64
2022/06/16 02:53:31;;;;;;;6.67;4.47;;;;;;;17.46;100.00;101788.03;2065083;28;20427;-64
2022/06/16 02:55:02;;;;;;;6.77;4.80;;;;;;;17.44;100.00;101779.28;2065171;28;20618;-64
2022/06/16 02:56:11;;;;;;;6.43;4.40;;;;;;;17.43;100.00;101783.31;2065077;28;20503;-64
2022/06/16 02:57:37;;;;;;;6.30;4.57;;;;;;;17.47;100.00;101783.19;2065113;28;20784;-64
2022/06/16 02:58:41;;;;;;;7.00;4.53;;;;;;;17.51;100.00;101784.63;2065161;28;20408;-64
2022/06/16 02:59:50;;;;;;;6.87;4.40;;;;;;;17.52;100.00;101788.22;2065162;28;20474;-64
2022/06/16 03:00:55;;;;;;;5.33;4.37;;;;;;;17.18;100.00;101744.91;2065214;28;20772;-64
2022/06/16 03:02:08;;;;;;;7.20;4.50;;;;;;;17.48;100.00;101813.56;2065070;28;20409;-64
2022/06/16 03:03:36;;;;;;;5.83;4.50;;;;;;;17.48;100.00;101781.94;2065228;28;20389;-64
2022/06/16 03:04:40;;;;;;;10.33;4.50;;;;;;;17.51;100.00;101781.06;2063381;28;20462;-64
2022/06/16 03:05:41;;;;;;;10.57;4.50;;;;;;;17.53;100.00;101782.94;2065158;28;20428;-64
2022/06/16 03:06:42;;;;;;;8.03;4.80;;;;;;;17.52;100.00;101788.22;2064811;28;20470;-64
2022/06/16 03:07:44;;;;;;;7.43;5.27;;;;;;;17.56;100.00;101786.88;2065106;28;20561;-64
2022/06/16 03:08:45;;;;;;;12.80;5.30;;;;;;;17.56;100.00;101786.09;2065188;28;20424;-64
2022/06/16 03:09:45;;;;;;;9.40;5.17;;;;;;;17.48;100.00;101787.56;2064987;28;20416;-64
2022/06/16 03:10:52;;;;;;;12.03;5.20;;;;;;;17.60;100.00;101787.53;2064957;28;20199;-64
2022/06/16 03:11:52;;;;;;;9.43;5.17;;;;;;;17.61;100.00;101782.72;2064995;28;20245;-64
2022/06/16 03:12:53;;;;;;;8.07;4.87;;;;;;;17.64;100.00;101782.59;2064386;28;20427;-64
2022/06/16 03:13:54;;;;;;;7.27;4.83;;;;;;;17.39;100.00;101742.66;2064489;28;20194;-64
2022/06/16 03:14:54;;;;;;;7.63;4.70;;;;;;;17.01;100.00;101681.84;2065126;28;20257;-64
2022/06/16 03:15:57;;;;;;;10.00;5.20;;;;;;;17.66;100.00;101782.91;2065004;28;20206;-64
2022/06/16 03:16:57;;;;;;;7.10;4.27;;;;;;;17.61;100.00;101777.88;2065035;28;20170;-64
2022/06/16 03:17:58;;;;;;;7.60;4.30;;;;;;;17.72;100.00;101791.53;2064982;28;20401;-64
2022/06/16 03:18:59;;;;;;;6.53;4.47;;;;;;;16.91;100.00;101657.00;2065158;28;20617;-64
2022/06/16 03:19:59;;;;;;;6.77;4.87;;;;;;;17.73;100.00;101789.06;2065025;28;20186;-64
2022/06/16 03:20:59;;;;;;;8.00;4.77;;;;;;;17.73;100.00;101793.91;2064695;28;20261;-64
2022/06/16 03:22:00;;;;;;;6.30;4.87;;;;;;;17.69;100.00;101784.81;2056994;28;20202;-64
2022/06/16 03:23:01;;;;;;;10.30;4.80;;;;;;;17.72;100.00;101785.94;2057041;28;20175;-64
2022/06/16 03:24:01;;;;;;;7.40;4.23;;;;;;;17.62;100.00;101781.47;2057049;28;20178;-64
2022/06/16 03:25:02;;;;;;;7.97;4.63;;;;;;;17.60;100.00;101778.34;2057068;28;20216;-64
2022/06/16 03:26:03;;;;;;;8.40;4.43;;;;;;;17.61;100.00;101805.16;2057023;28;20194;-64
2022/06/16 03:27:05;;;;;;;6.93;4.23;;;;;;;17.53;100.00;101768.16;2056304;28;20185;-64
2022/06/16 03:28:07;;;;;;;6.53;3.97;;;;;;;17.66;100.00;101779.34;2056570;28;20183;-64
2022/06/16 03:29:08;;;;;;;7.43;4.40;;;;;;;17.58;100.00;101786.41;2057005;28;20459;-64
2022/06/16 03:30:10;;;;;;;7.27;4.77;;;;;;;17.68;100.00;101780.47;2056911;28;20412;-64
2022/06/16 03:31:10;;;;;;;8.13;4.67;;;;;;;17.70;100.00;101777.97;2059848;28;20664;-64
2022/06/16 03:32:11;;;;;;;5.43;4.70;;;;;;;17.71;100.00;101785.13;2064952;28;20798;-64
2022/06/16 03:33:12;;;;;;;5.20;4.70;;;;;;;16.69;100.00;101642.94;2064803;28;20669;-64
2022/06/16 03:34:13;;;;;;;9.00;5.00;;;;;;;17.73;100.00;101802.31;2064854;28;20563;-64
2022/06/16 03:35:14;;;;;;;7.00;5.60;;;;;;;17.00;100.00;101668.31;2065073;28;20468;-64
2022/06/16 03:36:15;;;;;;;7.70;5.30;;;;;;;17.73;100.00;101777.84;2064806;28;20210;-64
2022/06/16 03:37:15;;;;;;;6.97;5.40;;;;;;;17.77;100.00;101786.91;2065065;28;20205;-64
2022/06/16 03:39:21;;;;;;;8.50;5.27;;;;;;;17.80;100.00;101782.44;2065111;28;20192;-64
2022/06/16 03:40:22;;;;;;;10.13;4.87;;;;;;;17.79;100.00;101780.88;2064883;28;20428;-64
2022/06/16 03:41:23;;;;;;;8.97;4.97;;;;;;;17.70;100.00;101775.16;2064799;28;20545;-64
2022/06/16 03:42:23;;;;;;;7.17;5.00;;;;;;;17.66;100.00;101777.31;2064868;28;20564;-64
2022/06/16 03:43:24;;;;;;;12.63;4.93;;;;;;;17.66;100.00;101779.34;2064842;28;20548;-64
2022/06/16 03:44:24;;;;;;;12.53;5.10;;;;;;;17.27;100.00;101727.41;2065015;28;20205;-64
2022/06/16 03:45:25;;;;;;;9.40;5.20;;;;;;;17.44;100.00;101761.69;2060862;28;20187;-64
2022/06/16 03:46:25;;;;;;;10.97;5.03;;;;;;;17.68;100.00;101786.84;2056645;28;20183;-64
2022/06/16 03:47:26;;;;;;;8.63;5.23;;;;;;;17.02;100.00;101677.84;2056844;28;20173;-64
2022/06/16 03:48:26;;;;;;;8.87;5.33;;;;;;;17.13;100.00;101699.88;2056920;28;20181;-64
2022/06/16 03:49:27;;;;;;;9.77;6.47;;;;;;;17.73;100.00;101784.69;2056883;28;20193;-64
2022/06/16 03:50:28;;;;;;;11.77;5.50;;;;;;;18.03;100.00;101796.81;2055355;28;20249;-66
2022/06/16 03:51:29;;;;;;;11.93;6.00;;;;;;;18.97;100.00;101828.16;2055079;28;20186;-61
2022/06/16 03:52:29;;;;;;;5.63;3.37;;;;;;;19.85;100.00;101818.91;2055931;28;20418;-63
2022/06/16 03:53:30;;;;;;;10.97;4.50;;;;;;;20.09;100.00;101806.59;2056024;28;20670;-66
2022/06/16 03:54:30;;;;;;;9.77;3.70;;;;;;;20.02;100.00;101775.16;2056007;28;20183;-65
2022/06/16 03:55:31;;;;;;;10.20;4.70;;;;;;;20.28;100.00;101798.94;2056140;28;20190;-66
2022/06/16 03:56:31;;;;;;;15.30;4.30;;;;;;;20.39;100.00;101791.56;2054984;28;20188;-65
2022/06/16 03:57:32;;;;;;;8.00;3.73;;;;;;;20.20;100.00;101764.69;2060422;28;20656;-66
2022/06/16 03:58:34;;;;;;;9.53;3.87;;;;;;;20.64;100.00;101796.03;2064301;28;20205;-66
2022/06/16 03:59:34;;;;;;;9.60;3.70;;;;;;;20.16;100.00;101645.09;2059998;28;20354;-66
2022/06/16 04:00:35;;;;;;;8.77;3.87;;;;;;;21.83;100.00;101774.00;2064755;28;20504;-66
2022/06/16 04:01:35;;;;;;;4.60;2.80;;;;;;;22.41;100.00;101722.47;2064346;28;20639;-66
2022/06/16 04:02:36;;;;;;;5.57;2.60;;;;;;;23.43;100.00;101782.44;2064436;28;20183;-63
2022/06/16 04:04:55;;;;;;;4.53;2.70;;;;;;;;;;2059696;28;20656;-63
2022/06/16 04:05:56;;;;;;;4.27;3.13;;;;;;;24.23;100.00;101762.59;2063699;28;20589;-63
2022/06/16 04:06:56;;;;;;;7.50;3.20;;;;;;;24.45;100.00;101757.91;2062172;28;20282;-63
2022/06/16 04:07:56;;;;;;;7.23;3.10;;;;;;;24.65;100.00;101759.91;2064948;28;20182;-63
2022/06/16 04:08:57;;;;;;;7.57;3.30;;;;;;;24.46;100.00;101716.19;2065669;28;20198;-63
2022/06/16 04:09:58;;;;;;;5.87;3.60;;;;;;;24.88;100.00;101753.91;2057565;28;20175;-63
2022/06/16 04:10:58;;;;;;;7.53;4.00;;;;;;;24.90;100.00;101757.03;2061728;28;20277;-63
2022/06/16 04:11:59;;;;;;;7.93;3.90;;;;;;;25.12;100.00;101762.84;2065249;28;20204;-63
2022/06/16 04:13:00;;;;;;;7.17;4.00;;;;;;;25.19;100.00;101753.84;2064835;28;20178;-63
2022/06/16 04:14:04;;;;;;;5.37;3.40;;;;;;;21.47;100.00;101179.19;2065115;28;20604;-63
2022/06/16 04:15:05;;;;;;;6.03;3.67;;;;;;;25.27;100.00;101762.69;2065238;28;20183;-63
2022/06/16 04:16:06;;;;;;;8.80;3.80;;;;;;;24.82;100.00;101679.38;2065092;28;20236;-63
2022/06/16 04:17:06;;;;;;;8.53;4.23;;;;;;;25.36;100.00;101759.66;2064858;28;20178;-63
2022/06/16 04:18:07;;;;;;;7.03;3.90;;;;;;;25.30;100.00;101756.81;2065250;28;20182;-63
2022/06/16 04:19:11;;;;;;;5.33;3.60;;;;;;;25.38;100.00;101757.13;2063650;28;20652;-63
2022/06/16 04:20:12;;;;;;;9.73;3.70;;;;;;;25.42;100.00;101775.44;2065438;28;20228;-63
2022/06/16 04:21:13;;;;;;;6.20;3.50;;;;;;;25.49;100.00;101760.00;2065036;28;20205;-63
2022/06/16 04:22:13;;;;;;;7.20;3.97;;;;;;;25.54;100.00;101759.25;2065302;28;20189;-63
2022/06/16 04:23:14;;;;;;;7.20;3.63;;;;;;;25.59;100.00;101762.09;2065399;28;20186;-63
2022/06/16 04:24:17;;;;;;;7.53;4.00;;;;;;;25.67;100.00;101765.22;2065414;28;20187;-63
2022/06/16 04:25:21;;;;;;;7.67;4.17;;;;;;;25.73;100.00;101757.50;2064073;28;20186;-63
2022/06/16 04:26:22;;;;;;;9.43;4.60;;;;;;;25.67;100.00;101765.22;2065187;28;20674;-63
2022/06/16 04:27:22;;;;;;;9.13;4.43;;;;;;;25.52;100.00;101765.44;2065348;28;20549;-63
2022/06/16 04:28:22;;;;;;;6.27;4.40;;;;;;;25.37;100.00;101770.50;2065467;28;20206;-63
2022/06/16 04:29:24;;;;;;;8.30;4.60;;;;;;;25.26;100.00;101761.16;2065648;28;20186;-63
2022/06/16 04:30:25;;;;;;;7.67;4.10;;;;;;;25.29;100.00;101751.63;2065930;28;20257;-62
2022/06/16 04:31:25;;;;;;;10.80;5.47;;;;;;;25.34;100.00;101763.00;2065850;28;20316;-63
2022/06/16 04:32:26;;;;;;;9.03;4.80;;;;;;;25.26;100.00;101764.00;2065614;28;20554;-63
2022/06/16 04:33:27;;;;;;;8.83;4.10;;;;;;;25.28;100.00;101759.38;2065598;28;20186;-63
2022/06/16 04:34:27;;;;;;;4.37;3.67;;;;;;;25.36;100.00;101751.16;2065606;28;20181;-63
2022/06/16 04:35:28;;;;;;;6.53;3.80;;;;;;;25.53;100.00;101760.53;2065436;28;20186;-63
2022/06/16 04:36:29;;;;;;;7.27;4.37;;;;;;;25.50;100.00;101759.50;2065544;28;20178;-63
2022/06/16 04:37:30;;;;;;;6.60;3.93;;;;;;;25.49;100.00;101760.00;2064787;28;20269;-63
2022/06/16 04:38:31;;;;;;;5.77;3.70;;;;;;;25.05;100.00;101698.09;2065325;28;20178;-64
2022/06/16 04:39:32;;;;;;;6.60;4.00;;;;;;;25.59;100.00;101761.34;2065416;28;20179;-63
2022/06/16 04:40:33;;;;;;;9.77;4.27;;;;;;;25.08;100.00;101704.81;2065336;28;20653;-63
2022/06/16 04:41:35;;;;;;;8.63;3.80;;;;;;;25.46;100.00;101764.63;2065491;28;20595;-63
2022/06/16 04:42:35;;;;;;;5.50;3.87;;;;;;;25.58;100.00;101768.31;2065689;28;20182;-63
2022/06/16 04:43:36;;;;;;;6.07;3.63;;;;;;;25.57;100.00;101767.53;2057592;28;20179;-63
2022/06/16 04:44:39;;;;;;;5.37;3.87;;;;;;;25.49;100.00;101760.00;2057755;28;20202;-63
2022/06/16 04:45:39;;;;;;;9.97;3.90;;;;;;;25.64;100.00;101758.50;2063441;28;20182;-63
2022/06/16 04:46:39;;;;;;;6.17;4.07;;;;;;;25.64;100.00;101764.19;2065379;28;20215;-63
2022/06/16 04:47:40;;;;;;;4.93;3.70;;;;;;;25.66;100.00;101758.00;2065708;28;20262;-63
2022/06/16 04:48:43;;;;;;;5.00;3.70;;;;;;;25.73;100.00;101769.66;2065827;28;20183;-63
2022/06/16 04:49:48;;;;;;;5.20;4.03;;;;;;;24.83;100.00;101652.56;2065775;28;20190;-65
2022/06/16 04:50:49;;;;;;;6.50;4.17;;;;;;;25.57;100.00;101769.56;2065557;28;20244;-63
2022/06/16 04:51:50;;;;;;;8.30;4.30;;;;;;;25.60;100.00;101768.56;2065387;28;20252;-64
2022/06/16 04:52:50;;;;;;;5.53;3.83;;;;;;;25.54;100.00;101773.44;2065129;28;20261;-63
2022/06/16 04:53:51;;;;;;;5.97;4.10;;;;;;;25.47;100.00;101763.34;2065186;28;20190;-63
2022/06/16 04:54:51;;;;;;;5.67;3.90;;;;;;;25.28;100.00;101767.88;2064723;28;20167;-63
2022/06/16 04:55:54;;;;;;;6.10;4.07;;;;;;;25.29;100.00;101768.66;2064650;28;20187;-63
2022/06/16 04:56:55;;;;;;;6.77;4.43;;;;;;;25.40;100.00;101768.72;2064766;28;20305;-63
2022/06/16 04:57:55;;;;;;;5.83;4.07;;;;;;;25.51;100.00;101763.88;2064910;28;20194;-63
2022/06/16 04:58:55;;;;;;;7.60;4.20;;;;;;;25.65;100.00;101773.50;2064624;28;20212;-63
2022/06/16 04:59:56;;;;;;;4.70;3.80;;;;;;;25.73;100.00;101769.66;2064778;28;20285;-64
2022/06/16 05:00:57;;;;;;;5.70;4.20;;;;;;;25.76;100.00;101788.53;2064770;28;20167;-64
2022/06/16 05:01:58;;;;;;;7.37;3.87;;;;;;;25.55;100.00;101755.13;2064187;28;20175;-65
2022/06/16 05:02:58;;;;;;;6.83;4.00;;;;;;;25.56;100.00;101771.66;2063769;28;20670;-65
2022/06/16 05:03:59;;;;;;;5.50;4.37;;;;;;;25.53;100.00;101777.56;2063906;28;20253;-65
2022/06/16 05:04:59;;;;;;;5.33;3.83;;;;;;;25.37;100.00;101783.91;2064358;28;20289;-65